Time;durP1;ratioP1;P1;durP2;ratioP2;P2;SDS_P1;SDS_P2;PMS_P1;PMS_P2;Temp;Humidity;BMP_temperature;BMP_pressure;BME280_temperature;BME280_humidity;BME280_pressure;Samples;Min_cycle;Max_cycle;Signal;HPM_P1;HPM_P2
2023/01/17 00:00:52;;;;;;;10.35;7.53;;;;;;;2.46;73.45;96561.63;5104289;28;20059;-72
2023/01/17 00:03:19;;;;;;;8.20;6.95;;;;;;;1.74;73.42;96475.88;5104532;28;20040;-72
2023/01/17 00:11:26;;;;;;;8.68;7.25;;;;;;;2.43;73.75;96568.81;5046982;28;20036;-72
2023/01/17 00:13:53;;;;;;;8.98;7.20;;;;;;;0.77;73.44;96288.22;5095510;28;20056;-73
2023/01/17 00:16:20;;;;;;;7.72;6.20;;;;;;;-0.51;73.21;96092.47;5107242;28;20044;-73
2023/01/17 00:26:01;;;;;;;8.75;6.57;;;;;;;2.48;73.58;96583.25;5108360;28;20040;-73
2023/01/17 01:33:38;;;;;;;8.02;7.22;;;;;;;2.42;72.64;96608.97;5107909;28;20311;-73
2023/01/17 01:36:07;;;;;;;9.32;7.10;;;;;;;2.41;72.73;96615.13;5107834;28;20177;-73
2023/01/17 01:38:34;;;;;;;8.10;6.88;;;;;;;2.42;72.32;96616.81;5106745;28;20040;-73
2023/01/17 01:41:01;;;;;;;7.40;6.63;;;;;;;2.41;72.69;96615.13;5107616;28;20043;-73
2023/01/17 01:46:30;;;;;;;9.10;6.75;;;;;;;2.38;72.68;96608.34;5107215;28;20082;-72
2023/01/17 01:49:01;;;;;;;8.23;6.60;;;;;;;2.39;72.74;96610.00;5107288;28;20066;-73
2023/01/17 01:51:32;;;;;;;8.00;7.10;;;;;;;2.40;72.67;96613.47;5107829;28;20040;-73
2023/01/17 01:54:05;;;;;;;8.55;7.40;;;;;;;2.39;72.72;96606.56;5107488;28;20203;-73
2023/01/17 01:56:32;;;;;;;12.15;7.22;;;;;;;2.40;72.63;96603.84;5106564;28;20040;-73
2023/01/17 01:59:04;;;;;;;9.15;7.85;;;;;;;2.40;72.72;96600.41;5107114;28;20046;-73
2023/01/17 02:01:31;;;;;;;8.35;7.00;;;;;;;2.07;72.54;96538.97;5106244;28;20043;-73
2023/01/17 02:03:58;;;;;;;8.43;7.05;;;;;;;2.40;72.64;96601.22;5106520;28;20051;-73
2023/01/17 02:06:30;;;;;;;8.27;6.95;;;;;;;2.40;72.75;96603.00;5107519;28;20058;-73
2023/01/17 02:09:01;;;;;;;8.85;7.38;;;;;;;2.17;72.88;96563.53;5107471;28;20101;-73
2023/01/17 02:11:28;;;;;;;10.52;7.30;;;;;;;2.13;72.88;96545.56;5107116;28;20099;-73
2023/01/17 02:13:55;;;;;;;8.10;6.63;;;;;;;2.37;72.99;96582.31;5106861;28;20044;-72
2023/01/17 02:16:38;;;;;;;8.73;6.55;;;;;;;2.36;73.22;96580.63;5107406;28;20042;-72
2023/01/17 02:19:24;;;;;;;8.35;7.30;;;;;;;2.37;73.02;96575.28;5107013;28;20032;-73
2023/01/17 02:22:01;;;;;;;8.15;6.07;;;;;;;2.38;73.22;96576.13;5106918;28;20199;-72
2023/01/17 02:25:02;;;;;;;7.63;6.40;;;;;;;2.38;73.64;96574.34;5106872;28;20047;-73
2023/01/17 02:27:40;;;;;;;8.02;6.20;;;;;;;2.36;73.49;96586.69;5106838;28;20048;-73
2023/01/17 02:30:27;;;;;;;7.68;6.47;;;;;;;2.38;73.65;96574.34;5106701;28;20089;-72
2023/01/17 02:33:03;;;;;;;8.10;6.38;;;;;;;2.40;73.75;96579.47;5106505;28;20040;-72
2023/01/17 02:35:39;;;;;;;8.27;7.28;;;;;;;2.04;73.50;96527.88;5106733;28;20052;-72
2023/01/17 02:38:17;;;;;;;8.02;7.22;;;;;;;2.43;73.49;96595.81;5106019;28;20047;-72
2023/01/17 02:40:48;;;;;;;8.10;6.93;;;;;;;2.13;73.63;96522.03;5105538;28;20044;-72
2023/01/17 02:43:17;;;;;;;7.57;6.75;;;;;;;2.39;73.56;96593.50;5106629;28;20050;-71
2023/01/17 02:45:46;;;;;;;8.90;7.65;;;;;;;2.40;73.60;96587.31;5105281;28;20050;-71
2023/01/17 02:48:16;;;;;;;8.77;7.88;;;;;;;2.39;73.74;96590.88;5106553;28;20044;-70
2023/01/17 02:51:02;;;;;;;9.20;7.63;;;;;;;2.41;73.89;96586.38;5105315;28;20085;-69
2023/01/17 02:53:46;;;;;;;8.85;7.22;;;;;;;2.43;73.77;96595.81;5105319;28;20131;-70
2023/01/17 02:56:27;;;;;;;8.73;7.82;;;;;;;2.43;73.75;96581.91;5105234;28;20326;-73
2023/01/17 02:59:06;;;;;;;9.48;7.70;;;;;;;2.43;73.63;96598.41;5106345;28;20043;-73
2023/01/17 03:01:43;;;;;;;8.98;7.00;;;;;;;2.43;73.55;96592.34;5106674;28;20059;-73
2023/01/17 03:04:17;;;;;;;8.88;7.45;;;;;;;2.43;73.70;96592.34;5105991;28;20230;-73
2023/01/17 03:06:48;;;;;;;8.70;7.75;;;;;;;2.43;73.62;96589.72;5106298;28;20094;-72
2023/01/17 03:09:17;;;;;;;9.00;8.10;;;;;;;2.44;73.59;96607.94;5105836;28;20058;-72
2023/01/17 03:11:45;;;;;;;8.77;7.88;;;;;;;1.80;73.53;96488.53;5106384;28;20047;-73
2023/01/17 03:14:12;;;;;;;8.07;7.28;;;;;;;2.45;73.60;96590.47;5106399;28;20046;-72
2023/01/17 03:16:40;;;;;;;8.35;7.18;;;;;;;2.45;73.77;96596.53;5106311;28;20051;-73
2023/01/17 03:19:08;;;;;;;8.70;7.80;;;;;;;2.47;73.71;96596.44;5106315;28;20048;-73
2023/01/17 03:21:35;;;;;;;7.75;6.70;;;;;;;2.48;73.71;96593.72;5105774;28;20111;-73
2023/01/17 03:24:02;;;;;;;9.55;7.90;;;;;;;2.48;73.68;96596.34;5105749;28;20040;-73
2023/01/17 03:26:29;;;;;;;9.43;7.63;;;;;;;2.48;73.76;96601.56;5104848;28;20303;-73
2023/01/17 03:28:55;;;;;;;9.07;7.38;;;;;;;2.48;73.67;96601.56;5105953;28;20047;-73
2023/01/17 03:31:22;;;;;;;10.40;8.02;;;;;;;2.49;73.83;96607.63;5105791;28;20081;-73
2023/01/17 03:33:50;;;;;;;8.15;7.32;;;;;;;2.37;73.68;96597.97;5105641;28;20201;-73
2023/01/17 03:36:19;;;;;;;10.18;8.98;;;;;;;2.48;73.64;96614.63;5105918;28;20044;-72
2023/01/17 03:38:45;;;;;;;10.00;8.25;;;;;;;2.16;73.75;96561.88;5106195;28;20036;-72
2023/01/17 03:41:12;;;;;;;10.80;8.07;;;;;;;1.93;73.46;96522.53;5106209;28;20040;-74
2023/01/17 03:43:39;;;;;;;9.48;8.48;;;;;;;2.52;73.56;96621.34;5106035;28;20046;-73
2023/01/17 03:46:08;;;;;;;9.02;8.13;;;;;;;2.25;73.35;96586.56;5105416;28;20048;-72
2023/01/17 03:48:34;;;;;;;9.30;8.38;;;;;;;2.53;73.50;96616.94;5105575;28;20111;-72
2023/01/17 03:51:03;;;;;;;9.52;8.52;;;;;;;2.54;73.37;96618.63;5107113;28;20054;-72
2023/01/17 03:53:29;;;;;;;9.98;8.38;;;;;;;2.54;73.51;96624.69;5109818;28;20044;-72
2023/01/17 03:55:56;;;;;;;11.77;9.50;;;;;;;2.54;73.58;96629.06;5108579;28;20044;-71
2023/01/17 03:58:23;;;;;;;11.43;8.52;;;;;;;2.21;73.50;96570.25;5109981;28;20137;-72
2023/01/17 04:00:49;;;;;;;11.80;8.95;;;;;;;2.54;73.51;96632.53;5108581;28;20195;-72
2023/01/17 04:03:16;;;;;;;9.73;8.73;;;;;;;2.55;73.45;96633.38;5108572;28;20292;-72
2023/01/17 04:05:43;;;;;;;10.57;8.88;;;;;;;2.20;73.54;96572.97;5109607;28;20040;-72
2023/01/17 04:08:11;;;;;;;9.68;8.68;;;;;;;2.54;73.45;96631.69;5108539;28;20048;-72
2023/01/17 04:10:38;;;;;;;10.07;8.25;;;;;;;2.56;73.52;96645.50;5109666;28;20040;-71
2023/01/17 04:13:05;;;;;;;9.98;8.63;;;;;;;2.55;73.55;96646.44;5109197;28;20117;-71
2023/01/17 04:15:33;;;;;;;8.85;7.93;;;;;;;2.27;73.36;96592.53;5109084;28;20241;-71
2023/01/17 04:18:00;;;;;;;9.65;8.10;;;;;;;2.17;73.59;96581.84;5109301;28;20295;-72
2023/01/17 04:20:32;;;;;;;8.60;7.53;;;;;;;2.51;73.61;96635.34;5109592;28;20046;-72
2023/01/17 04:22:59;;;;;;;10.13;8.43;;;;;;;2.53;73.42;96635.25;5109270;28;20317;-72
2023/01/17 04:25:28;;;;;;;8.98;8.07;;;;;;;2.53;73.35;96633.47;5109325;28;20245;-73
2023/01/17 04:27:56;;;;;;;9.55;8.20;;;;;;;2.53;73.30;96630.00;5109170;28;20177;-73
2023/01/17 04:30:23;;;;;;;9.25;8.05;;;;;;;2.51;73.50;96632.72;5109088;28;20054;-73
2023/01/17 04:32:50;;;;;;;9.50;8.48;;;;;;;2.17;73.52;96581.84;5108012;28;20050;-72
2023/01/17 04:35:17;;;;;;;9.38;8.18;;;;;;;1.99;73.44;96543.00;5109011;28;20075;-71
2023/01/17 04:37:44;;;;;;;10.57;9.48;;;;;;;2.23;73.65;96601.50;5109072;28;20195;-73
2023/01/17 04:40:12;;;;;;;9.20;7.97;;;;;;;1.65;73.76;96553.03;5108979;28;20044;-73
2023/01/17 04:42:40;;;;;;;8.80;7.90;;;;;;;2.44;73.88;96628.84;5108928;28;20187;-73
2023/01/17 04:45:08;;;;;;;8.15;7.35;;;;;;;2.43;73.92;96634.19;5107393;28;20067;-73
2023/01/17 04:47:35;;;;;;;9.50;8.50;;;;;;;2.44;73.92;96625.41;5108494;28;20048;-73
2023/01/17 04:50:02;;;;;;;10.05;8.98;;;;;;;2.46;73.82;96628.75;5108689;28;20040;-73
2023/01/17 04:52:28;;;;;;;9.32;8.23;;;;;;;2.46;73.69;96620.91;5107567;28;20050;-72
2023/01/17 04:54:55;;;;;;;9.85;8.35;;;;;;;2.46;73.66;96634.81;5108346;28;20066;-73
2023/01/17 04:57:22;;;;;;;9.15;7.35;;;;;;;2.46;73.79;96634.81;5108563;28;20288;-73
2023/01/17 04:59:52;;;;;;;9.85;8.50;;;;;;;2.45;73.65;96634.91;5107405;28;20218;-72
2023/01/17 05:02:19;;;;;;;9.02;7.80;;;;;;;2.44;73.69;96634.06;5108200;28;20070;-72
2023/01/17 05:04:46;;;;;;;10.25;7.80;;;;;;;2.43;73.78;96642.84;5107349;28;20093;-72
2023/01/17 05:07:12;;;;;;;10.02;8.38;;;;;;;2.39;73.67;96643.16;5108414;28;20044;-72
2023/01/17 05:09:39;;;;;;;10.02;8.32;;;;;;;2.37;73.81;96643.25;5108569;28;20040;-72
2023/01/17 05:12:06;;;;;;;7.97;7.18;;;;;;;2.36;73.64;96648.59;5107977;28;20040;-73
2023/01/17 05:14:33;;;;;;;7.88;7.07;;;;;;;2.35;73.79;96652.97;5108282;28;20040;-72
2023/01/17 05:17:02;;;;;;;8.80;7.30;;;;;;;2.34;73.79;96660.91;5108530;28;20043;-72
2023/01/17 05:19:29;;;;;;;9.55;7.65;;;;;;;2.32;74.03;96655.78;5108186;28;20044;-72
2023/01/17 05:22:02;;;;;;;9.50;8.38;;;;;;;2.33;73.84;96656.63;5108130;28;20040;-72
2023/01/17 05:24:29;;;;;;;9.07;8.00;;;;;;;2.32;74.20;96657.56;5107857;28;20392;-72
2023/01/17 05:27:01;;;;;;;9.60;7.60;;;;;;;1.96;74.09;96598.91;5107784;28;20051;-72
2023/01/17 05:29:29;;;;;;;10.57;8.05;;;;;;;2.32;74.07;96675.84;5108187;28;20047;-73
2023/01/17 05:31:56;;;;;;;10.38;8.35;;;;;;;2.31;74.09;96663.72;5106808;28;20036;-73
2023/01/17 05:34:24;;;;;;;9.38;8.25;;;;;;;2.30;74.21;96656.81;5107935;28;20295;-72
2023/01/17 05:36:51;;;;;;;9.77;8.32;;;;;;;1.92;74.35;96613.09;5107318;28;20044;-73
2023/01/17 05:39:18;;;;;;;8.95;8.00;;;;;;;1.86;74.39;96621.31;5107773;28;20302;-72
2023/01/17 05:41:45;;;;;;;9.82;7.90;;;;;;;1.87;74.49;96612.56;5107735;28;20306;-72
2023/01/17 05:44:12;;;;;;;9.65;8.30;;;;;;;2.20;74.41;96673.09;5089899;28;20050;-72
2023/01/17 05:46:38;;;;;;;10.35;8.00;;;;;;;1.87;74.59;96620.38;5107186;28;20254;-72
2023/01/17 05:49:06;;;;;;;9.30;7.82;;;;;;;2.19;74.67;96684.47;5107574;28;20039;-72
2023/01/17 05:51:36;;;;;;;9.82;8.63;;;;;;;1.32;74.65;96576.84;5106919;28;20048;-72
2023/01/17 05:54:03;;;;;;;9.20;8.18;;;;;;;2.16;74.69;96691.69;5106331;28;20059;-72
2023/01/17 05:56:30;;;;;;;11.50;9.27;;;;;;;2.12;74.78;96688.41;5107624;28;20101;-71
2023/01/17 05:58:57;;;;;;;10.95;8.18;;;;;;;2.11;74.65;96697.19;5107667;28;20044;-72
2023/01/17 06:01:24;;;;;;;12.40;9.27;;;;;;;2.11;74.75;96702.44;5106201;28;20136;-72
2023/01/17 06:03:51;;;;;;;13.63;9.27;;;;;;;2.10;74.89;96710.34;5107025;28;20238;-72
2023/01/17 06:06:18;;;;;;;10.82;9.05;;;;;;;2.10;74.90;96712.97;5106119;28;20036;-72
2023/01/17 06:08:46;;;;;;;11.07;8.95;;;;;;;2.08;74.97;96714.84;5106912;28;20051;-72
2023/01/17 06:11:13;;;;;;;12.68;9.45;;;;;;;2.06;75.03;96720.16;5106752;28;20044;-72
2023/01/17 06:13:40;;;;;;;11.98;10.45;;;;;;;2.05;75.08;96723.72;5106274;28;20071;-73
2023/01/17 06:16:07;;;;;;;11.57;10.00;;;;;;;2.06;75.06;96719.31;5105928;28;20055;-72
2023/01/17 06:18:34;;;;;;;11.95;9.60;;;;;;;2.05;75.09;96726.31;5107179;28;20036;-72
2023/01/17 06:21:00;;;;;;;11.82;9.52;;;;;;;2.04;75.11;96722.03;5105527;28;20199;-71
2023/01/17 06:23:28;;;;;;;13.50;9.90;;;;;;;2.00;75.20;96731.00;5105321;28;20044;-71
2023/01/17 06:25:56;;;;;;;14.98;10.95;;;;;;;1.96;75.32;96732.13;5106822;28;20040;-71
2023/01/17 06:28:24;;;;;;;11.60;9.70;;;;;;;1.99;75.30;96738.94;5106933;28;20048;-72
2023/01/17 06:30:51;;;;;;;14.07;10.35;;;;;;;2.01;75.17;96742.28;5105742;28;20292;-72
2023/01/17 06:33:17;;;;;;;11.15;9.65;;;;;;;2.02;75.39;96744.81;5105431;28;20341;-72
2023/01/17 06:35:49;;;;;;;12.55;10.45;;;;;;;2.05;75.30;96755.06;5106180;28;20081;-72
2023/01/17 06:38:16;;;;;;;12.77;10.48;;;;;;;2.05;75.15;96747.22;5106642;28;20040;-72
2023/01/17 06:40:42;;;;;;;13.48;10.25;;;;;;;2.06;74.83;96751.50;5105506;28;20032;-71
2023/01/17 06:43:10;;;;;;;14.35;10.68;;;;;;;2.07;75.10;96747.97;5105322;28;20040;-72
2023/01/17 06:45:37;;;;;;;12.00;9.13;;;;;;;2.09;75.20;96763.53;5106314;28;20070;-72
2023/01/17 06:48:05;;;;;;;13.77;10.82;;;;;;;2.09;74.87;96761.78;5105035;28;20046;-72
2023/01/17 06:50:33;;;;;;;14.85;9.88;;;;;;;2.10;75.04;96765.22;5106167;28;20215;-72
2023/01/17 06:53:03;;;;;;;11.60;9.88;;;;;;;2.07;75.27;96766.25;5106447;28;20051;-72
2023/01/17 06:55:32;;;;;;;13.95;9.52;;;;;;;2.06;74.99;96777.63;5106120;28;20040;-71
2023/01/17 06:58:01;;;;;;;12.80;9.48;;;;;;;1.80;75.08;96747.06;5104780;28;20052;-72
2023/01/17 07:00:30;;;;;;;14.90;10.40;;;;;;;2.08;75.24;96798.44;5105000;28;20028;-72
2023/01/17 07:02:56;;;;;;;13.15;10.80;;;;;;;1.80;75.02;96744.44;5105800;28;20036;-71
2023/01/17 07:05:23;;;;;;;14.40;10.05;;;;;;;2.05;75.35;96802.09;5105995;28;20063;-72
2023/01/17 07:07:50;;;;;;;12.45;9.60;;;;;;;2.04;75.39;96792.56;5105685;28;20040;-72
2023/01/17 07:10:17;;;;;;;12.77;9.85;;;;;;;2.05;75.25;96802.09;5104696;28;20086;-72
2023/01/17 07:12:44;;;;;;;12.65;9.50;;;;;;;2.08;75.22;96814.13;5105504;28;20064;-72
2023/01/17 07:15:12;;;;;;;10.73;9.40;;;;;;;2.08;75.15;96812.34;5104991;28;20032;-72
2023/01/17 07:17:40;;;;;;;12.93;10.10;;;;;;;2.08;75.12;96809.75;5105887;28;20222;-71
2023/01/17 07:20:08;;;;;;;12.48;10.65;;;;;;;1.99;75.44;96807.69;5105721;28;20048;-72
2023/01/17 07:22:36;;;;;;;14.32;10.05;;;;;;;2.01;75.38;96820.66;5104648;28;20032;-72
2023/01/17 07:25:03;;;;;;;13.55;10.00;;;;;;;2.03;75.52;96819.63;5105611;28;20237;-72
2023/01/17 07:27:32;;;;;;;12.98;10.55;;;;;;;2.05;75.40;96830.81;5105635;28;20166;-72
2023/01/17 07:29:59;;;;;;;18.38;10.40;;;;;;;1.67;75.44;96765.25;5105951;28;20165;-72
2023/01/17 07:32:25;;;;;;;14.95;10.32;;;;;;;2.03;75.41;96835.31;5105476;28;20044;-72
2023/01/17 07:34:56;;;;;;;14.48;10.10;;;;;;;2.03;75.72;96826.63;5105954;28;20072;-72
2023/01/17 07:37:24;;;;;;;13.57;10.52;;;;;;;2.01;75.75;96829.34;5105382;28;20090;-72
2023/01/17 07:39:51;;;;;;;13.80;10.65;;;;;;;2.04;75.59;96833.53;5105570;28;20048;-72
2023/01/17 07:42:18;;;;;;;13.20;10.38;;;;;;;2.04;75.49;96829.16;5104596;28;20036;-73
2023/01/17 07:44:45;;;;;;;11.82;9.38;;;;;;;2.05;75.43;96840.44;5105749;28;20036;-72
2023/01/17 07:47:12;;;;;;;15.02;10.38;;;;;;;2.05;75.27;96845.66;5065121;28;20300;-72
2023/01/17 07:49:39;;;;;;;17.17;10.48;;;;;;;2.07;75.24;96852.47;5064166;28;20041;-72
2023/01/17 07:52:08;;;;;;;14.13;11.00;;;;;;;2.10;75.15;96848.84;5064973;28;20056;-72
2023/01/17 07:54:35;;;;;;;14.27;10.63;;;;;;;0.98;74.89;96655.47;5064615;28;20037;-72
2023/01/17 07:57:03;;;;;;;15.05;10.20;;;;;;;2.16;75.11;96858.91;5064981;28;20060;-73
2023/01/17 07:59:32;;;;;;;16.50;11.30;;;;;;;2.19;75.06;96843.03;5065631;28;20100;-72
2023/01/17 08:01:59;;;;;;;15.88;10.88;;;;;;;2.21;74.77;96847.25;5065058;28;20037;-72
2023/01/17 08:04:27;;;;;;;15.93;10.73;;;;;;;1.41;74.64;96709.38;5064778;28;20053;-72
2023/01/17 08:06:54;;;;;;;13.65;9.88;;;;;;;2.29;74.59;96840.72;5065522;28;20041;-73
2023/01/17 08:09:22;;;;;;;12.63;9.90;;;;;;;2.28;74.68;96844.25;5065506;28;20047;-72
2023/01/17 08:11:49;;;;;;;14.48;9.85;;;;;;;2.30;74.49;96843.22;5063906;28;20040;-73
2023/01/17 08:14:16;;;;;;;10.75;9.52;;;;;;;1.44;74.38;96721.41;5063854;28;20032;-73
2023/01/17 08:16:43;;;;;;;12.38;9.80;;;;;;;2.34;74.27;96841.25;5063830;28;20104;-73
2023/01/17 08:19:10;;;;;;;13.80;9.90;;;;;;;2.35;74.20;96845.56;5065183;28;20044;-72
2023/01/17 08:21:37;;;;;;;12.82;9.07;;;;;;;2.36;74.24;96842.84;5063719;28;20029;-72
2023/01/17 08:24:04;;;;;;;12.50;9.82;;;;;;;2.38;74.22;96840.13;5064498;28;20041;-73
2023/01/17 08:26:32;;;;;;;17.08;10.57;;;;;;;2.40;74.14;96846.94;5063596;28;20053;-73
2023/01/17 08:29:00;;;;;;;11.82;10.18;;;;;;;2.45;74.11;97035.72;5064585;28;20308;-73
2023/01/17 08:31:27;;;;;;;14.45;10.48;;;;;;;2.49;73.93;96832.47;5064494;28;20052;-73
2023/01/17 08:33:54;;;;;;;18.40;10.32;;;;;;;2.52;74.08;96837.50;5063422;28;20235;-73
2023/01/17 08:36:21;;;;;;;13.15;10.55;;;;;;;2.56;74.03;96836.38;5065423;28;20052;-72
2023/01/17 08:38:51;;;;;;;12.05;9.50;;;;;;;2.32;73.98;96796.09;5068428;28;20045;-73
2023/01/17 08:41:18;;;;;;;15.25;11.30;;;;;;;2.60;73.72;96835.25;5068253;28;20041;-73
2023/01/17 08:43:48;;;;;;;12.88;10.90;;;;;;;2.63;73.58;96835.06;5068359;28;20041;-73
2023/01/17 08:46:15;;;;;;;12.95;9.75;;;;;;;2.73;73.54;96832.69;5091959;28;20051;-72
2023/01/17 08:48:42;;;;;;;13.65;9.77;;;;;;;2.87;73.49;96835.25;5107329;28;20039;-72
2023/01/17 08:51:12;;;;;;;13.35;11.05;;;;;;;2.96;73.35;96834.66;5107025;28;20031;-73
2023/01/17 08:53:39;;;;;;;12.43;10.07;;;;;;;3.02;72.71;96834.28;5108070;28;20208;-72
2023/01/17 08:56:07;;;;;;;13.10;9.35;;;;;;;3.08;72.74;96841.72;5108158;28;20040;-73
2023/01/17 08:58:34;;;;;;;13.00;9.23;;;;;;;3.10;72.36;96841.63;5108079;28;20062;-72
2023/01/17 09:01:04;;;;;;;13.40;11.18;;;;;;;3.12;71.98;96839.75;5108624;28;20276;-72
2023/01/17 09:03:31;;;;;;;11.05;9.45;;;;;;;3.14;72.09;96856.19;5107032;28;20051;-73
2023/01/17 09:06:03;;;;;;;12.10;9.68;;;;;;;3.16;71.84;96857.78;5106965;28;20093;-73
2023/01/17 09:08:29;;;;;;;13.57;9.75;;;;;;;3.20;71.78;96874.13;5108322;28;20046;-73
2023/01/17 09:10:56;;;;;;;12.65;8.25;;;;;;;3.23;71.67;96866.06;5107550;28;20040;-72
2023/01/17 09:13:23;;;;;;;10.82;8.35;;;;;;;3.23;71.12;96878.31;5106810;28;20300;-73
2023/01/17 09:15:50;;;;;;;8.30;7.35;;;;;;;3.25;71.10;96886.91;5107942;28;20054;-73
2023/01/17 09:18:18;;;;;;;10.70;7.80;;;;;;;2.99;70.72;97087.44;5106876;28;20047;-72
2023/01/17 09:20:45;;;;;;;10.30;8.30;;;;;;;3.28;70.87;96889.31;5108227;28;20314;-72
2023/01/17 09:23:12;;;;;;;12.80;8.65;;;;;;;3.30;70.68;96890.91;5106718;28;20036;-72
2023/01/17 09:25:43;;;;;;;9.13;7.68;;;;;;;3.29;70.55;96886.59;5106746;28;20040;-72
2023/01/17 09:28:10;;;;;;;9.57;7.03;;;;;;;3.27;70.02;96888.47;5107181;28;20078;-73
2023/01/17 09:30:37;;;;;;;8.93;7.15;;;;;;;3.29;70.08;96904.94;5106584;28;20340;-72
2023/01/17 09:33:04;;;;;;;9.23;7.60;;;;;;;3.30;70.07;96904.00;5106333;28;20032;-73
2023/01/17 09:35:33;;;;;;;8.20;7.25;;;;;;;1.64;69.55;96634.06;5107300;28;20040;-73
2023/01/17 09:38:00;;;;;;;8.70;7.25;;;;;;;3.28;69.85;96895.41;5107121;28;20044;-73
2023/01/17 09:40:26;;;;;;;11.15;9.10;;;;;;;3.31;70.01;96900.44;5107308;28;20048;-72
2023/01/17 09:43:00;;;;;;;12.13;7.90;;;;;;;3.33;69.74;96900.34;5107117;28;20040;-72
2023/01/17 09:45:30;;;;;;;9.30;7.55;;;;;;;3.33;69.61;96897.72;5089198;28;20060;-73
2023/01/17 09:47:59;;;;;;;10.18;7.75;;;;;;;3.35;69.72;96895.84;5106508;28;20048;-72
2023/01/17 09:50:31;;;;;;;10.88;8.15;;;;;;;3.34;68.90;96902.84;5106228;28;20123;-73
2023/01/17 09:53:02;;;;;;;14.15;8.70;;;;;;;3.33;69.23;96889.88;5107341;28;20048;-73
2023/01/17 09:55:35;;;;;;;11.15;8.35;;;;;;;3.32;69.18;96891.63;5106140;28;20207;-73
2023/01/17 09:58:06;;;;;;;10.52;8.25;;;;;;;2.84;69.18;96798.84;5107599;28;20052;-72
2023/01/17 10:00:42;;;;;;;9.18;7.45;;;;;;;3.34;68.90;96881.06;5106272;28;20067;-72
2023/01/17 10:03:41;;;;;;;9.93;8.07;;;;;;;3.37;68.66;96873.00;5107521;28;20054;-73
2023/01/17 10:06:19;;;;;;;11.32;7.00;;;;;;;3.38;69.40;96865.06;5106065;28;20393;-72
2023/01/17 10:09:02;;;;;;;8.60;6.80;;;;;;;3.44;68.74;96864.66;5106011;28;20334;-73
2023/01/17 10:11:43;;;;;;;8.43;6.68;;;;;;;3.48;68.58;96860.06;5106720;28;20044;-73
2023/01/17 10:14:31;;;;;;;9.65;6.40;;;;;;;3.53;68.53;96853.56;5106733;28;20058;-73
2023/01/17 10:17:05;;;;;;;7.03;5.60;;;;;;;3.61;68.57;96839.97;5107117;28;20040;-73
2023/01/17 10:19:50;;;;;;;6.60;4.83;;;;;;;3.70;67.85;96836.72;5105787;28;20044;-73
2023/01/17 10:22:32;;;;;;;6.03;4.93;;;;;;;3.77;67.21;96818.81;5106529;28;20040;-72
2023/01/17 10:25:20;;;;;;;5.82;4.00;;;;;;;3.75;66.80;96797.97;5106457;28;20408;-72
2023/01/17 10:27:56;;;;;;;4.45;3.70;;;;;;;3.92;67.13;96817.75;5093037;28;20048;-73
2023/01/17 10:30:27;;;;;;;6.07;4.75;;;;;;;3.22;67.00;96667.22;5106514;28;20101;-72
2023/01/17 10:32:56;;;;;;;5.43;4.22;;;;;;;4.10;66.87;96806.00;5106673;28;20337;-73
2023/01/17 10:35:30;;;;;;;6.40;4.63;;;;;;;4.20;66.00;96811.47;5106293;28;20303;-73
2023/01/17 10:38:00;;;;;;;5.45;4.45;;;;;;;4.26;66.35;96816.28;5106119;28;20101;-72
2023/01/17 10:40:39;;;;;;;6.30;4.75;;;;;;;4.34;65.56;96798.25;5106413;28;20119;-75
2023/01/17 10:43:15;;;;;;;6.10;4.60;;;;;;;4.41;65.18;96798.66;5105728;28;20036;-73
2023/01/17 10:45:48;;;;;;;6.47;5.18;;;;;;;4.47;65.68;96790.34;5105593;28;20073;-73
2023/01/17 10:48:20;;;;;;;6.95;4.90;;;;;;;4.32;65.50;96741.63;5105637;28;20048;-73
2023/01/17 10:50:59;;;;;;;5.80;4.30;;;;;;;4.68;64.52;96777.47;5106072;28;20047;-73
2023/01/17 10:53:45;;;;;;;5.43;4.50;;;;;;;4.75;63.62;96942.22;5104334;28;20054;-73
2023/01/17 10:56:15;;;;;;;5.25;4.05;;;;;;;4.80;64.30;96755.59;5104875;28;20039;-72
2023/01/17 10:58:42;;;;;;;5.82;4.07;;;;;;;4.81;64.52;96752.84;5104636;28;20048;-73
2023/01/17 11:01:17;;;;;;;5.53;4.20;;;;;;;4.82;63.21;96746.66;5105871;28;20085;-73
2023/01/17 11:03:49;;;;;;;6.25;4.05;;;;;;;4.81;63.55;96739.75;5104624;28;20040;-72
2023/01/17 11:06:21;;;;;;;4.60;3.67;;;;;;;4.81;63.64;96759.88;5104609;28;20349;-73
2023/01/17 11:08:55;;;;;;;6.53;4.22;;;;;;;4.80;63.68;96750.34;5105077;28;20062;-73
2023/01/17 11:11:28;;;;;;;4.55;3.80;;;;;;;4.77;64.28;96746.16;5105545;28;20128;-73
2023/01/17 11:13:59;;;;;;;6.78;4.95;;;;;;;4.78;64.74;96754.88;5105607;28;20052;-73
2023/01/17 11:16:30;;;;;;;6.68;4.60;;;;;;;4.79;64.90;96746.03;5105789;28;20040;-73
2023/01/17 11:19:12;;;;;;;7.00;5.03;;;;;;;4.02;63.83;96635.34;5105882;28;20295;-73
2023/01/17 11:21:40;;;;;;;6.63;4.05;;;;;;;4.81;65.08;96741.53;5105866;28;20036;-73
2023/01/17 11:24:12;;;;;;;5.72;4.03;;;;;;;4.79;64.26;96736.38;5104306;28;20093;-72
2023/01/17 11:26:48;;;;;;;4.80;3.65;;;;;;;4.80;63.49;96721.47;5105791;28;20036;-72
2023/01/17 11:29:27;;;;;;;6.20;4.38;;;;;;;4.57;64.70;96682.97;5105346;28;20048;-73
2023/01/17 11:31:55;;;;;;;9.98;4.32;;;;;;;4.85;65.09;96719.34;5105622;28;20039;-73
2023/01/17 11:34:25;;;;;;;8.23;4.20;;;;;;;4.71;64.51;96688.88;5105038;28;20040;-73
2023/01/17 11:37:08;;;;;;;5.72;4.00;;;;;;;4.91;63.48;96713.69;5105602;28;20050;-73
2023/01/17 11:39:35;;;;;;;6.13;4.57;;;;;;;4.35;64.83;96626.03;5105470;28;20052;-72
2023/01/17 11:42:06;;;;;;;4.55;3.80;;;;;;;4.93;64.60;96711.78;5105152;28;20096;-72
2023/01/17 11:44:35;;;;;;;5.60;3.90;;;;;;;4.21;65.05;96618.31;5105387;28;20044;-72
2023/01/17 11:47:15;;;;;;;5.53;4.20;;;;;;;4.97;64.28;96747.34;5104958;28;20048;-73
2023/01/17 11:49:44;;;;;;;5.43;3.92;;;;;;;5.02;64.79;96718.97;5104997;28;20040;-72
2023/01/17 11:52:20;;;;;;;4.72;3.53;;;;;;;5.06;64.49;96716.94;5104862;28;20036;-73
2023/01/17 11:54:48;;;;;;;3.85;3.10;;;;;;;5.07;64.77;96718.63;5104100;28;20089;-73
2023/01/17 11:57:23;;;;;;;5.93;3.80;;;;;;;2.40;63.64;96271.06;5105372;28;20047;-73
2023/01/17 11:59:54;;;;;;;4.47;2.90;;;;;;;5.09;63.86;96721.97;5105070;28;20043;-73
2023/01/17 12:03:05;;;;;;;3.72;3.10;;;;;;;5.10;61.98;96718.41;5105308;28;20093;-73
2023/01/17 12:05:57;;;;;;;6.20;2.78;;;;;;;5.08;62.79;96725.56;5057510;28;20078;-73
2023/01/17 12:08:37;;;;;;;2.95;2.38;;;;;;;4.80;62.55;96675.09;5103363;28;20056;-74
2023/01/17 12:11:13;;;;;;;3.70;2.90;;;;;;;5.06;62.91;96825.44;5105682;28;20171;-73
2023/01/17 12:13:59;;;;;;;5.35;2.58;;;;;;;4.79;62.20;96657.66;5108800;28;20035;-73
2023/01/17 12:16:43;;;;;;;6.70;2.90;;;;;;;5.12;62.55;96708.63;5109202;28;20044;-73
2023/01/17 12:19:25;;;;;;;3.63;2.88;;;;;;;5.12;62.25;96706.84;5109288;28;20066;-73
2023/01/17 12:22:03;;;;;;;3.53;2.65;;;;;;;5.13;62.41;96700.63;5108864;28;20044;-73
2023/01/17 12:24:48;;;;;;;3.67;2.40;;;;;;;5.16;62.26;96696.09;5107941;28;20048;-73
2023/01/17 12:27:18;;;;;;;;;;;;;;;5.12;61.29;96687.63;5109280;28;20058;-73
2023/01/17 12:29:57;;;;;;;3.65;2.65;;;;;;;5.16;62.80;96685.59;5107940;28;19991;-73
2023/01/17 12:32:45;;;;;;;5.70;2.70;;;;;;;5.22;62.39;96679.88;5108843;28;20040;-72
2023/01/17 12:35:18;;;;;;;3.80;2.70;;;;;;;5.26;62.79;96660.31;5108141;28;20135;-73
2023/01/17 12:37:49;;;;;;;4.53;2.88;;;;;;;4.30;63.51;96487.41;5108470;28;20050;-73
2023/01/17 12:40:23;;;;;;;4.78;2.65;;;;;;;5.10;62.98;96613.38;5107397;28;20049;-72
2023/01/17 12:42:54;;;;;;;3.55;2.50;;;;;;;5.37;62.81;96634.91;5108756;28;20032;-73
2023/01/17 12:45:30;;;;;;;4.05;2.78;;;;;;;5.36;61.71;96627.97;5107992;28;20052;-72
2023/01/17 12:48:03;;;;;;;3.65;2.70;;;;;;;5.36;62.61;96627.13;5108256;28;20114;-72
2023/01/17 12:50:36;;;;;;;4.63;2.80;;;;;;;5.35;62.32;96623.69;5107326;28;20050;-73
2023/01/17 12:53:17;;;;;;;4.60;2.78;;;;;;;5.39;61.97;96629.53;5108054;28;20032;-73
2023/01/17 12:55:51;;;;;;;4.28;2.95;;;;;;;5.23;61.74;96606.25;5107431;28;20055;-72
2023/01/17 12:58:21;;;;;;;4.78;2.75;;;;;;;5.41;62.85;96638.97;5108351;28;20190;-72
2023/01/17 13:00:58;;;;;;;3.50;3.17;;;;;;;4.60;61.80;96513.09;5108095;28;20044;-72
2023/01/17 13:03:36;;;;;;;4.10;3.00;;;;;;;5.41;62.27;96648.63;5108128;28;20107;-72
2023/01/17 13:06:06;;;;;;;4.80;2.80;;;;;;;5.44;63.09;96651.84;5107186;28;20075;-72
2023/01/17 13:08:40;;;;;;;6.35;3.00;;;;;;;5.12;62.80;96601.81;5107004;28;20046;-72
2023/01/17 13:11:12;;;;;;;4.35;3.78;;;;;;;5.43;63.52;96647.56;5107853;28;20052;-72
2023/01/17 13:13:42;;;;;;;5.07;3.15;;;;;;;5.39;63.69;96640.88;5107780;28;20321;-72